Time;durP1;ratioP1;P1;durP2;ratioP2;P2;SDS_P1;SDS_P2;PMS_P1;PMS_P2;Temp;Humidity;BMP_temperature;BMP_pressure;BME280_temperature;BME280_humidity;BME280_pressure;Samples;Min_cycle;Max_cycle;Signal;HPM_P1;HPM_P2
2022/09/09 00:01:43;;;;;;;0.22;0.22;;;16.40;99.90;;;;;;5054677;28;20021;-75
2022/09/09 00:04:27;;;;;;;0.15;0.15;;;16.40;99.90;;;;;;5051868;28;20041;-75
2022/09/09 00:07:10;;;;;;;0.10;0.10;;;16.40;99.90;;;;;;5072470;28;20062;-75
2022/09/09 00:09:48;;;;;;;0.10;0.10;;;16.40;99.90;;;;;;5054410;28;20032;-75
2022/09/09 00:12:48;;;;;;;0.10;0.10;;;16.30;99.90;;;;;;5054364;28;20025;-75
2022/09/09 00:15:21;;;;;;;0.10;0.10;;;16.30;99.90;;;;;;5054347;28;20503;-75
2022/09/09 00:18:05;;;;;;;0.20;0.20;;;16.40;99.90;;;;;;5072702;28;20146;-75
2022/09/09 00:20:40;;;;;;;0.10;0.10;;;16.30;99.90;;;;;;5072415;28;20179;-75
2022/09/09 00:23:39;;;;;;;0.10;0.10;;;16.20;99.90;;;;;;5054439;28;20029;-75
2022/09/09 00:26:10;;;;;;;0.28;0.28;;;16.20;99.90;;;;;;5054033;28;20051;-75
2022/09/09 00:28:44;;;;;;;;;;;16.30;99.90;;;;;;5054659;28;20455;-74
2022/09/09 00:31:19;;;;;;;0.10;0.10;;;16.30;99.90;;;;;;5054110;28;19909;-76
2022/09/09 00:33:47;;;;;;;0.20;0.20;;;16.20;99.90;;;;;;5054170;28;20016;-75
2022/09/09 00:36:21;;;;;;;0.20;0.20;;;16.20;99.90;;;;;;5054040;28;20384;-75
2022/09/09 00:38:51;;;;;;;0.20;0.20;;;16.10;99.90;;;;;;5053993;28;20360;-75
2022/09/09 00:41:22;;;;;;;0.10;0.10;;;16.00;99.90;;;;;;5072002;28;20020;-75
2022/09/09 00:44:10;;;;;;;0.20;0.20;;;15.90;99.90;;;;;;5054165;28;20029;-75
2022/09/09 00:47:01;;;;;;;0.10;0.10;;;16.10;99.90;;;;;;5072220;28;20073;-78
2022/09/09 00:49:36;;;;;;;0.20;0.20;;;16.20;99.90;;;;;;5071723;28;20074;-75
2022/09/09 00:52:23;;;;;;;0.10;0.10;;;16.30;99.90;;;;;;5071784;28;20496;-74
2022/09/09 00:54:57;;;;;;;0.10;0.10;;;16.30;99.90;;;;;;5053627;28;20042;-76
2022/09/09 00:57:29;;;;;;;1.08;0.68;;;16.20;99.90;;;;;;5071720;28;20020;-75
2022/09/09 00:59:58;;;;;;;0.10;0.10;;;16.10;99.90;;;;;;5053806;28;20103;-75
2022/09/09 01:02:38;;;;;;;0.10;0.10;;;16.00;99.90;;;;;;5071133;28;20089;-75
2022/09/09 01:05:38;;;;;;;0.15;0.15;;;16.00;99.90;;;;;;5071586;28;20581;-75
2022/09/09 01:08:33;;;;;;;0.30;0.30;;;16.00;99.90;;;;;;5040396;28;20036;-75
2022/09/09 01:10:59;;;;;;;0.43;0.30;;;16.10;99.90;;;;;;5071483;28;20123;-76
2022/09/09 01:13:33;;;;;;;0.10;0.10;;;16.10;99.90;;;;;;5071412;28;20075;-75
2022/09/09 01:16:02;;;;;;;0.10;0.10;;;16.00;99.90;;;;;;5053462;28;20021;-77
2022/09/09 01:18:36;;;;;;;0.10;0.10;;;16.10;99.90;;;;;;5053626;28;20016;-75
2022/09/09 01:21:10;;;;;;;0.10;0.10;;;16.20;99.90;;;;;;5071546;28;20025;-75
2022/09/09 01:24:08;;;;;;;0.10;0.10;;;16.40;99.90;;;;;;5071438;28;20417;-76
2022/09/09 01:26:37;;;;;;;0.10;0.10;;;16.30;99.90;;;;;;5036746;28;20035;-75
2022/09/09 01:29:08;;;;;;;0.10;0.10;;;16.30;99.90;;;;;;5053298;28;20111;-75
2022/09/09 01:32:00;;;;;;;0.10;0.10;;;16.40;99.90;;;;;;5071430;28;20025;-75
2022/09/09 01:34:31;;;;;;;0.10;0.10;;;16.40;99.90;;;;;;5070731;28;20498;-76
2022/09/09 01:37:07;;;;;;;0.15;0.15;;;16.40;99.90;;;;;;5053090;28;20029;-75
2022/09/09 01:39:37;;;;;;;0.20;0.20;;;16.50;99.90;;;;;;5053291;28;20035;-75
2022/09/09 01:42:06;;;;;;;0.30;0.30;;;16.40;99.90;;;;;;5071277;28;20024;-75
2022/09/09 01:44:32;;;;;;;0.00;0.00;;;16.40;99.90;;;;;;5071259;28;20025;-75
2022/09/09 01:46:58;;;;;;;0.10;0.10;;;16.40;99.90;;;;;;5071070;28;20498;-75
2022/09/09 01:49:24;;;;;;;0.10;0.10;;;16.40;99.90;;;;;;5071465;28;20032;-75
2022/09/09 01:51:53;;;;;;;0.10;0.10;;;16.40;99.90;;;;;;5071257;28;20024;-75
2022/09/09 01:54:22;;;;;;;0.10;0.10;;;16.60;99.90;;;;;;5071120;28;20086;-75
2022/09/09 01:56:54;;;;;;;0.10;0.10;;;16.70;99.90;;;;;;5071049;28;20024;-75
2022/09/09 01:59:57;;;;;;;0.10;0.10;;;16.40;99.90;;;;;;5071131;28;20443;-75
2022/09/09 02:02:43;;;;;;;0.10;0.10;;;16.50;99.90;;;;;;5071092;28;20020;-74
2022/09/09 02:05:30;;;;;;;0.10;0.10;;;16.60;99.90;;;;;;5053030;28;20059;-75
2022/09/09 02:08:05;;;;;;;0.10;0.10;;;16.50;99.90;;;;;;5053209;28;20052;-78
2022/09/09 02:10:56;;;;;;;0.30;0.30;;;16.50;99.90;;;;;;5053162;28;20035;-75
2022/09/09 02:13:22;;;;;;;0.10;0.10;;;16.40;99.90;;;;;;5060748;28;20048;-77
2022/09/09 02:16:27;;;;;;;0.10;0.10;;;16.30;99.90;;;;;;5056676;28;20449;-76
2022/09/09 02:19:15;;;;;;;0.10;0.10;;;16.30;99.90;;;;;;5073944;28;20025;-75
2022/09/09 02:21:45;;;;;;;0.10;0.10;;;16.30;99.90;;;;;;5056588;28;20016;-75
2022/09/09 02:24:15;;;;;;;0.10;0.10;;;16.30;99.90;;;;;;5074370;28;20021;-76
2022/09/09 02:26:44;;;;;;;0.10;0.10;;;16.30;99.90;;;;;;5074322;28;20025;-74
2022/09/09 02:29:22;;;;;;;0.10;0.10;;;16.30;99.90;;;;;;5056436;28;20237;-75
2022/09/09 02:31:51;;;;;;;0.30;0.30;;;16.30;99.90;;;;;;5074333;28;20419;-74
2022/09/09 02:34:20;;;;;;;0.10;0.10;;;16.40;99.90;;;;;;5039710;28;20025;-78
2022/09/09 02:36:47;;;;;;;0.63;0.35;;;16.30;99.90;;;;;;5055934;28;20024;-74
2022/09/09 02:39:13;;;;;;;0.10;0.10;;;16.30;99.90;;;;;;5056236;28;20021;-75
2022/09/09 02:41:41;;;;;;;0.22;0.22;;;16.40;99.90;;;;;;5074230;28;20017;-76
2022/09/09 02:44:12;;;;;;;0.10;0.10;;;16.30;99.90;;;;;;5056298;28;20052;-76
2022/09/09 02:46:51;;;;;;;0.10;0.10;;;16.50;99.90;;;;;;5056018;28;20360;-74
2022/09/09 02:49:31;;;;;;;0.10;0.10;;;16.70;99.90;;;;;;5055980;28;20021;-75
2022/09/09 02:52:02;;;;;;;0.10;0.10;;;16.50;99.90;;;;;;5055984;28;20489;-75
2022/09/09 02:54:32;;;;;;;0.10;0.10;;;16.50;99.90;;;;;;5063708;22;20057;-75
2022/09/09 02:57:12;;;;;;;0.20;0.20;;;16.50;99.90;;;;;;5053825;28;20020;-76
2022/09/09 02:59:41;;;;;;;0.10;0.10;;;16.50;99.90;;;;;;5047734;28;20029;-76
2022/09/09 03:02:07;;;;;;;0.10;0.10;;;16.70;99.90;;;;;;5053781;28;20029;-76
2022/09/09 03:04:32;;;;;;;0.10;0.10;;;16.60;99.90;;;;;;5032813;28;20030;-75
2022/09/09 03:06:59;;;;;;;0.35;0.35;;;16.60;99.90;;;;;;5049871;28;20036;-76
2022/09/09 03:09:25;;;;;;;0.10;0.10;;;16.50;99.90;;;;;;5053586;28;20029;-76
2022/09/09 03:11:52;;;;;;;1.45;0.68;;;16.40;99.90;;;;;;5053651;28;20100;-76
2022/09/09 03:14:21;;;;;;;0.10;0.10;;;16.40;99.90;;;;;;5035135;28;20018;-75
2022/09/09 03:16:48;;;;;;;0.45;0.30;;;16.60;99.90;;;;;;5053368;28;20053;-76
2022/09/09 03:19:13;;;;;;;0.10;0.10;;;16.70;99.90;;;;;;5053559;28;20017;-75
2022/09/09 03:21:39;;;;;;;0.10;0.10;;;16.70;99.90;;;;;;5053468;28;20104;-76
2022/09/09 03:24:06;;;;;;;0.10;0.10;;;16.70;99.90;;;;;;5032670;28;20021;-76
2022/09/09 03:26:32;;;;;;;0.10;0.10;;;16.80;99.90;;;;;;5032068;28;20028;-76
2022/09/09 03:29:00;;;;;;;0.10;0.10;;;16.70;99.90;;;;;;5049799;28;20052;-76
2022/09/09 03:31:29;;;;;;;4.07;3.90;;;16.70;99.90;;;;;;5045181;28;20099;-76
2022/09/09 03:33:59;;;;;;;0.10;0.10;;;16.70;99.90;;;;;;5053178;28;20138;-76
2022/09/09 03:36:29;;;;;;;0.00;0.00;;;16.60;99.90;;;;;;5031832;28;20117;-76
2022/09/09 03:38:55;;;;;;;0.10;0.10;;;16.60;99.90;;;;;;5049211;28;20029;-76
2022/09/09 03:41:24;;;;;;;0.10;0.10;;;16.60;99.90;;;;;;5018453;28;20025;-76
2022/09/09 03:43:53;;;;;;;0.10;0.10;;;16.60;99.90;;;;;;5053003;28;20059;-75
2022/09/09 03:46:21;;;;;;;0.10;0.10;;;16.60;99.90;;;;;;5052886;28;20032;-76
2022/09/09 03:48:47;;;;;;;0.10;0.10;;;16.50;99.90;;;;;;5053168;28;20036;-75
2022/09/09 03:51:13;;;;;;;0.10;0.10;;;16.40;99.90;;;;;;5052905;28;20021;-75
2022/09/09 03:53:39;;;;;;;0.10;0.10;;;16.60;99.90;;;;;;5052898;28;20481;-76
2022/09/09 03:56:06;;;;;;;0.80;0.80;;;16.50;99.90;;;;;;5053383;28;20108;-76
2022/09/09 03:58:33;;;;;;;0.15;0.15;;;16.50;99.90;;;;;;5015241;28;20175;-75
2022/09/09 04:01:12;;;;;;;0.00;0.00;;;16.60;99.90;;;;;;5049384;28;20028;-76
2022/09/09 04:03:39;;;;;;;0.03;0.03;;;16.50;99.90;;;;;;5052628;28;20028;-75
2022/09/09 04:06:07;;;;;;;0.10;0.10;;;16.50;99.90;;;;;;5052591;28;20035;-76
2022/09/09 04:08:33;;;;;;;0.10;0.10;;;16.50;99.90;;;;;;5031622;28;20021;-76
2022/09/09 04:11:02;;;;;;;0.10;0.10;;;16.50;99.90;;;;;;5031357;28;20079;-76
2022/09/09 04:13:27;;;;;;;0.10;0.10;;;16.50;99.90;;;;;;5052520;28;20048;-76
2022/09/09 04:15:56;;;;;;;0.20;0.20;;;16.40;99.90;;;;;;5052489;28;20060;-76
2022/09/09 04:18:23;;;;;;;0.10;0.10;;;16.40;99.90;;;;;;5034395;28;20048;-76
2022/09/09 04:20:50;;;;;;;0.10;0.10;;;16.40;99.90;;;;;;5031277;28;20029;-76
2022/09/09 04:23:18;;;;;;;0.13;0.13;;;16.30;99.90;;;;;;5051194;28;20029;-76
2022/09/09 04:25:46;;;;;;;0.10;0.10;;;16.30;99.90;;;;;;5052204;28;20029;-76
2022/09/09 04:28:13;;;;;;;0.10;0.10;;;16.30;99.90;;;;;;5052351;28;20108;-76
2022/09/09 04:30:40;;;;;;;0.10;0.10;;;16.40;99.90;;;;;;5031106;28;20075;-76
2022/09/09 04:33:06;;;;;;;0.17;0.17;;;16.30;99.90;;;;;;5049750;28;20046;-76
2022/09/09 04:35:32;;;;;;;0.10;0.10;;;16.40;99.90;;;;;;5051609;28;20476;-75
2022/09/09 04:37:58;;;;;;;0.10;0.10;;;16.40;99.90;;;;;;5051660;28;20503;-76
2022/09/09 04:40:25;;;;;;;0.15;0.15;;;16.40;99.90;;;;;;5043889;28;20029;-76
2022/09/09 04:42:51;;;;;;;0.10;0.10;;;16.40;99.90;;;;;;5051932;28;20033;-76
2022/09/09 04:45:18;;;;;;;0.00;0.00;;;16.30;99.90;;;;;;5052228;28;20055;-76
2022/09/09 04:47:44;;;;;;;0.10;0.10;;;16.30;99.90;;;;;;5051949;28;20028;-76
2022/09/09 04:50:09;;;;;;;0.10;0.10;;;16.40;99.90;;;;;;5051674;28;20034;-76
2022/09/09 04:52:35;;;;;;;0.22;0.22;;;16.50;99.90;;;;;;5051883;28;20025;-76
2022/09/09 04:55:02;;;;;;;0.10;0.10;;;16.30;99.90;;;;;;5030786;28;20025;-76
2022/09/09 04:57:28;;;;;;;0.75;0.25;;;16.20;99.90;;;;;;5051894;28;20021;-76
2022/09/09 04:59:54;;;;;;;0.10;0.10;;;16.20;99.90;;;;;;5030725;28;20205;-76
2022/09/09 05:02:20;;;;;;;0.15;0.15;;;16.30;99.90;;;;;;5051234;28;20051;-75
2022/09/09 05:04:46;;;;;;;0.10;0.10;;;16.40;99.90;;;;;;5051553;28;20029;-76
2022/09/09 05:07:11;;;;;;;0.10;0.10;;;16.50;99.90;;;;;;5051625;28;20075;-76
2022/09/09 05:09:37;;;;;;;0.10;0.10;;;16.60;99.90;;;;;;5048435;28;20035;-76
2022/09/09 05:12:04;;;;;;;0.52;0.50;;;16.50;99.90;;;;;;5042612;28;20021;-76
2022/09/09 05:14:29;;;;;;;0.10;0.10;;;16.40;99.90;;;;;;5017448;28;20026;-76
2022/09/09 05:16:56;;;;;;;0.20;0.20;;;16.30;99.90;;;;;;5010668;28;20073;-76
2022/09/09 05:19:21;;;;;;;0.10;0.10;;;16.20;99.90;;;;;;5031338;28;20036;-76
2022/09/09 05:21:48;;;;;;;0.10;0.10;;;16.30;99.90;;;;;;5051212;28;20029;-76
2022/09/09 05:24:14;;;;;;;0.10;0.10;;;16.40;99.90;;;;;;5032304;28;20033;-76
2022/09/09 05:26:40;;;;;;;0.10;0.10;;;16.30;99.90;;;;;;5050823;28;20311;-76
2022/09/09 05:29:05;;;;;;;0.10;0.10;;;16.20;99.90;;;;;;5051408;28;20021;-76
2022/09/09 05:31:32;;;;;;;0.10;0.10;;;16.20;99.90;;;;;;5051015;28;20019;-75
2022/09/09 05:33:59;;;;;;;1.40;0.55;;;16.10;99.90;;;;;;5030181;28;20025;-76
2022/09/09 05:36:24;;;;;;;0.10;0.10;;;16.10;99.90;;;;;;5051352;28;20025;-76
2022/09/09 05:38:50;;;;;;;0.10;0.10;;;16.20;99.90;;;;;;5030493;28;20047;-76
2022/09/09 05:41:17;;;;;;;0.20;0.20;;;16.00;99.90;;;;;;5050654;28;20029;-75
2022/09/09 05:43:45;;;;;;;3.47;0.30;;;15.90;99.90;;;;;;5050904;28;20025;-76
2022/09/09 05:46:13;;;;;;;0.20;0.20;;;16.00;99.90;;;;;;5045928;28;20017;-76
2022/09/09 05:48:46;;;;;;;0.15;0.15;;;16.10;99.90;;;;;;5036268;28;20092;-76
2022/09/09 05:51:17;;;;;;;0.10;0.10;;;16.00;99.90;;;;;;5044021;28;20028;-75
2022/09/09 05:53:44;;;;;;;0.10;0.10;;;15.90;99.90;;;;;;5041885;28;20108;-76
2022/09/09 05:56:19;;;;;;;0.10;0.10;;;15.90;99.90;;;;;;5054758;28;20279;-76
2022/09/09 05:58:49;;;;;;;0.10;0.10;;;15.90;99.90;;;;;;5054981;28;20108;-76
2022/09/09 06:01:17;;;;;;;0.10;0.10;;;16.00;99.90;;;;;;5035758;28;20033;-75
2022/09/09 06:03:44;;;;;;;0.10;0.10;;;16.10;99.90;;;;;;4997821;28;20026;-76
2022/09/09 06:06:13;;;;;;;0.10;0.10;;;16.20;99.90;;;;;;5015607;28;20026;-76
2022/09/09 06:08:43;;;;;;;0.10;0.10;;;16.40;99.90;;;;;;5014012;28;20029;-76
2022/09/09 06:11:12;;;;;;;0.10;0.10;;;16.40;99.90;;;;;;4998766;28;20087;-76
2022/09/09 06:13:38;;;;;;;0.10;0.10;;;16.40;99.90;;;;;;5034141;28;20018;-76
2022/09/09 06:16:07;;;;;;;0.20;0.20;;;16.30;99.90;;;;;;5034622;28;20483;-76
2022/09/09 06:18:33;;;;;;;0.15;0.15;;;16.20;99.90;;;;;;5048083;28;20029;-76
2022/09/09 06:21:03;;;;;;;0.10;0.10;;;16.30;99.90;;;;;;5054393;28;20496;-76
2022/09/09 06:23:30;;;;;;;2.10;0.40;;;16.20;99.90;;;;;;5054581;28;20029;-76
2022/09/09 06:26:07;;;;;;;0.10;0.10;;;16.30;99.90;;;;;;5054326;28;20029;-76
2022/09/09 06:28:34;;;;;;;0.10;0.10;;;16.30;99.90;;;;;;5054308;28;20029;-76
2022/09/09 06:31:01;;;;;;;0.10;0.10;;;16.00;99.90;;;;;;5033051;28;20060;-76
2022/09/09 06:33:30;;;;;;;0.20;0.20;;;16.10;99.90;;;;;;5033422;28;20033;-76
2022/09/09 06:35:56;;;;;;;0.10;0.10;;;16.10;99.90;;;;;;5050278;28;20027;-76
2022/09/09 06:38:23;;;;;;;0.82;0.82;;;16.00;99.90;;;;;;5054314;28;20017;-76
2022/09/09 06:40:58;;;;;;;0.38;0.38;;;16.10;99.90;;;;;;5025735;28;20056;-76
2022/09/09 06:43:24;;;;;;;0.10;0.10;;;16.20;99.90;;;;;;5029418;28;20025;-76
2022/09/09 06:46:05;;;;;;;0.10;0.10;;;16.20;99.90;;;;;;5032957;28;20034;-76
2022/09/09 06:48:31;;;;;;;0.00;0.00;;;16.20;99.90;;;;;;5035700;28;20021;-76
2022/09/09 06:51:04;;;;;;;0.08;0.08;;;16.30;99.90;;;;;;5027165;28;20418;-76
2022/09/09 06:53:33;;;;;;;0.95;0.30;;;16.40;99.90;;;;;;5031156;28;20112;-76
2022/09/09 06:56:16;;;;;;;0.10;0.10;;;16.50;99.90;;;;;;5032574;28;20039;-76
2022/09/09 06:58:43;;;;;;;0.10;0.10;;;16.40;99.90;;;;;;5033218;28;20045;-76
2022/09/09 07:01:14;;;;;;;0.40;0.40;;;16.40;99.90;;;;;;5033717;28;20519;-77
2022/09/09 07:03:42;;;;;;;0.10;0.10;;;16.30;99.90;;;;;;5031660;28;20022;-77
2022/09/09 07:06:19;;;;;;;0.10;0.10;;;16.30;99.90;;;;;;5039454;28;20022;-77
2022/09/09 07:08:53;;;;;;;0.10;0.10;;;16.20;99.90;;;;;;5023361;28;20116;-77
2022/09/09 07:11:20;;;;;;;0.68;0.68;;;16.20;99.90;;;;;;5048364;28;20048;-78
2022/09/09 07:13:47;;;;;;;0.05;0.05;;;16.10;99.90;;;;;;5050467;28;20119;-78
2022/09/09 07:16:18;;;;;;;1.23;1.02;;;16.10;99.90;;;;;;5037286;28;20018;-78
2022/09/09 07:18:44;;;;;;;5.53;5.05;;;16.10;99.90;;;;;;5059093;28;20089;-78
2022/09/09 07:21:12;;;;;;;0.17;0.17;;;16.10;99.90;;;;;;5045313;28;20133;-77
2022/09/09 07:23:38;;;;;;;0.43;0.43;;;16.10;99.90;;;;;;5042097;28;20112;-77
2022/09/09 07:26:21;;;;;;;0.10;0.10;;;16.10;99.90;;;;;;5007180;28;20034;-78
2022/09/09 07:28:47;;;;;;;0.20;0.20;;;16.10;99.90;;;;;;5020752;28;20045;-77
2022/09/09 07:31:20;;;;;;;0.10;0.10;;;16.10;99.90;;;;;;5043502;28;20037;-77
2022/09/09 07:33:47;;;;;;;0.10;0.10;;;16.10;99.90;;;;;;5021128;28;20050;-77
2022/09/09 07:36:22;;;;;;;0.10;0.10;;;16.00;99.90;;;;;;5024190;28;20047;-77
2022/09/09 07:38:53;;;;;;;0.75;0.25;;;15.80;99.90;;;;;;5023387;28;20026;-77
2022/09/09 07:41:27;;;;;;;0.20;0.20;;;15.80;99.90;;;;;;5042437;28;20516;-78
2022/09/09 07:43:54;;;;;;;0.20;0.20;;;15.60;99.90;;;;;;5022742;28;20037;-77
2022/09/09 07:46:22;;;;;;;0.13;0.13;;;15.50;99.90;;;;;;5007872;28;20127;-77
2022/09/09 07:48:51;;;;;;;0.10;0.10;;;15.60;99.90;;;;;;5043246;28;20056;-77
2022/09/09 07:51:19;;;;;;;0.10;0.10;;;15.60;99.90;;;;;;5004161;28;20086;-78
2022/09/09 07:53:46;;;;;;;0.40;0.40;;;15.60;99.90;;;;;;5039422;28;20025;-76
2022/09/09 07:56:16;;;;;;;0.10;0.10;;;15.60;99.90;;;;;;5034704;28;20038;-77
2022/09/09 07:58:44;;;;;;;0.10;0.10;;;15.30;99.90;;;;;;5035639;28;20021;-78
2022/09/09 08:01:17;;;;;;;0.10;0.10;;;15.40;99.90;;;;;;5036039;28;20036;-77
2022/09/09 08:03:45;;;;;;;0.20;0.20;;;15.40;99.90;;;;;;5015547;28;20517;-77
2022/09/09 08:06:12;;;;;;;1.65;1.25;;;15.50;99.90;;;;;;5035009;28;20030;-77
2022/09/09 08:08:40;;;;;;;0.15;0.15;;;15.30;99.90;;;;;;5034648;28;20428;-76
2022/09/09 08:11:12;;;;;;;0.10;0.10;;;15.40;99.90;;;;;;5036496;28;20029;-78
2022/09/09 08:13:39;;;;;;;0.10;0.10;;;15.40;99.90;;;;;;5015184;28;20478;-78
2022/09/09 08:16:07;;;;;;;0.30;0.30;;;15.50;99.90;;;;;;5032712;28;20025;-77
2022/09/09 08:18:33;;;;;;;0.20;0.20;;;15.30;99.90;;;;;;5014472;28;20507;-78
2022/09/09 08:21:05;;;;;;;0.10;0.10;;;15.40;99.90;;;;;;5013058;28;20192;-77
2022/09/09 08:23:31;;;;;;;0.15;0.15;;;15.40;99.90;;;;;;5016525;28;20042;-77
2022/09/09 08:26:04;;;;;;;0.10;0.10;;;15.30;99.90;;;;;;5013275;28;20048;-77
2022/09/09 08:28:30;;;;;;;0.25;0.25;;;15.30;99.90;;;;;;5016230;28;20029;-78
2022/09/09 08:31:04;;;;;;;0.10;0.10;;;15.30;99.90;;;;;;5031304;28;20041;-77
2022/09/09 08:33:29;;;;;;;0.20;0.20;;;15.40;99.90;;;;;;4996157;28;20512;-78
2022/09/09 08:35:55;;;;;;;0.10;0.10;;;15.60;99.90;;;;;;5035072;28;20040;-77
2022/09/09 08:38:21;;;;;;;0.00;0.00;;;15.70;99.90;;;;;;5037814;28;20021;-77
2022/09/09 08:40:49;;;;;;;0.10;0.10;;;15.80;99.90;;;;;;5035637;28;20033;-78
2022/09/09 08:43:18;;;;;;;0.10;0.10;;;16.00;99.90;;;;;;5018221;28;20056;-78
2022/09/09 08:46:06;;;;;;;2.22;0.20;;;16.00;99.90;;;;;;5029219;28;20028;-76
2022/09/09 08:49:13;;;;;;;0.10;0.10;;;15.80;99.90;;;;;;5037010;28;20047;-77
2022/09/09 08:51:39;;;;;;;0.08;0.08;;;15.90;99.90;;;;;;4996086;28;20049;-77
2022/09/09 08:54:05;;;;;;;0.10;0.10;;;16.00;99.90;;;;;;5016011;28;20080;-77
2022/09/09 08:56:33;;;;;;;0.00;0.00;;;16.20;99.90;;;;;;5075415;23;20080;-80
2022/09/09 08:59:02;;;;;;;0.10;0.10;;;16.20;99.90;;;;;;5020156;28;20060;-79
2022/09/09 09:02:02;;;;;;;0.00;0.00;;;16.10;99.90;;;;;;5019143;28;20672;-78
2022/09/09 09:04:48;;;;;;;0.10;0.10;;;16.10;99.90;;;;;;5000643;28;20034;-78
2022/09/09 09:07:42;;;;;;;0.10;0.10;;;16.10;99.90;;;;;;4980671;28;20044;-77
2022/09/09 09:10:38;;;;;;;0.10;0.10;;;16.20;99.90;;;;;;4998506;28;20033;-81
2022/09/09 09:13:28;;;;;;;0.10;0.10;;;16.30;99.90;;;;;;4981157;28;20120;-77
2022/09/09 09:16:06;;;;;;;0.10;0.10;;;16.30;99.90;;;;;;4982634;28;20077;-79
2022/09/09 09:18:33;;;;;;;0.70;0.50;;;16.20;99.90;;;;;;5000270;28;20057;-79
2022/09/09 09:21:18;;;;;;;0.10;0.10;;;16.10;99.90;;;;;;4997502;28;20030;-77
2022/09/09 09:23:59;;;;;;;0.10;0.10;;;16.00;99.90;;;;;;5003217;28;20425;-78
2022/09/09 09:26:34;;;;;;;0.10;0.10;;;16.00;99.90;;;;;;5003415;28;20026;-77
2022/09/09 09:29:09;;;;;;;0.10;0.10;;;16.00;99.90;;;;;;5004052;28;20417;-78
2022/09/09 09:31:35;;;;;;;0.35;0.35;;;16.00;99.90;;;;;;5001098;28;20053;-79
2022/09/09 09:34:02;;;;;;;0.75;0.75;;;16.00;99.90;;;;;;4986395;28;20026;-76
2022/09/09 09:36:56;;;;;;;0.08;0.08;;;15.90;99.90;;;;;;5001631;28;20113;-79
2022/09/09 09:39:36;;;;;;;0.00;0.00;;;16.00;99.90;;;;;;5001447;28;20053;-82
2022/09/09 09:42:13;;;;;;;0.00;0.00;;;16.00;99.90;;;;;;4968587;28;20033;-77
2022/09/09 09:44:40;;;;;;;0.10;0.10;;;16.00;99.90;;;;;;5003983;28;20030;-82
2022/09/09 09:47:12;;;;;;;0.10;0.10;;;16.00;99.90;;;;;;4967290;28;20030;-82
2022/09/09 09:49:39;;;;;;;0.10;0.10;;;16.00;99.90;;;;;;4986624;28;20119;-76
2022/09/09 09:52:07;;;;;;;0.08;0.08;;;15.90;99.90;;;;;;5002328;28;20077;-80
2022/09/09 09:54:41;;;;;;;0.40;0.40;;;16.00;99.90;;;;;;4985785;28;20065;-78
2022/09/09 09:57:10;;;;;;;0.10;0.10;;;16.20;99.90;;;;;;4984971;28;20108;-78
2022/09/09 09:59:39;;;;;;;0.08;0.08;;;16.20;99.90;;;;;;4969558;28;20037;-81
2022/09/09 10:02:26;;;;;;;0.10;0.10;;;16.20;99.90;;;;;;5002199;28;20034;-76
2022/09/09 10:05:12;;;;;;;0.10;0.10;;;16.30;99.90;;;;;;4980171;28;20034;-81
2022/09/09 10:07:38;;;;;;;0.10;0.10;;;16.10;99.90;;;;;;4978366;28;20384;-81
2022/09/09 10:10:06;;;;;;;0.00;0.00;;;16.00;99.90;;;;;;4968996;28;20034;-78
2022/09/09 10:12:49;;;;;;;0.00;0.00;;;16.10;99.90;;;;;;5001245;28;20437;-77
2022/09/09 10:15:41;;;;;;;0.10;0.10;;;16.20;99.90;;;;;;5002330;28;20030;-79
2022/09/09 10:18:19;;;;;;;0.10;0.10;;;16.30;99.90;;;;;;5002489;28;21301;-78
2022/09/09 10:21:20;;;;;;;0.10;0.10;;;16.30;99.90;;;;;;5003579;28;20038;-76
2022/09/09 10:24:13;;;;;;;0.10;0.10;;;16.50;99.90;;;;;;5000767;28;20505;-78
2022/09/09 10:26:58;;;;;;;0.10;0.10;;;16.50;99.90;;;;;;4966997;28;20124;-76
2022/09/09 10:30:08;;;;;;;0.10;0.10;;;16.50;99.90;;;;;;5001768;28;20112;-77
2022/09/09 10:32:46;;;;;;;0.08;0.08;;;16.40;99.90;;;;;;4968622;28;20037;-81
2022/09/09 10:35:33;;;;;;;0.10;0.10;;;16.20;99.90;;;;;;5001164;28;20457;-79
2022/09/09 10:38:17;;;;;;;0.10;0.10;;;16.20;99.90;;;;;;5002043;28;20102;-76
2022/09/09 10:40:44;;;;;;;0.17;0.17;;;16.20;99.90;;;;;;5000518;28;20076;-77
2022/09/09 10:43:28;;;;;;;0.75;0.43;;;16.00;99.90;;;;;;4984731;28;20953;-75
2022/09/09 10:46:13;;;;;;;0.10;0.10;;;16.00;99.90;;;;;;4985826;28;20092;-78
2022/09/09 10:49:17;;;;;;;0.00;0.00;;;16.00;99.90;;;;;;4968860;28;20041;-80
2022/09/09 10:52:01;;;;;;;0.10;0.10;;;16.00;99.90;;;;;;5000942;28;20398;-80
2022/09/09 10:54:53;;;;;;;0.10;0.10;;;16.10;99.90;;;;;;4977060;28;20033;-81
2022/09/09 10:57:31;;;;;;;0.10;0.10;;;16.20;99.90;;;;;;4983669;28;20049;-77
2022/09/09 11:00:05;;;;;;;0.45;0.45;;;16.10;99.90;;;;;;5003454;28;20053;-76
2022/09/09 11:02:33;;;;;;;0.10;0.10;;;16.10;99.90;;;;;;5001491;28;20485;-80
2022/09/09 11:05:10;;;;;;;0.10;0.10;;;16.10;99.90;;;;;;5002796;28;20065;-80
2022/09/09 11:07:39;;;;;;;0.10;0.10;;;16.10;99.90;;;;;;5000066;28;20158;-77
2022/09/09 11:10:34;;;;;;;0.10;0.10;;;16.10;99.90;;;;;;4984037;28;20034;-76
2022/09/09 11:13:05;;;;;;;0.10;0.10;;;16.20;99.90;;;;;;4947565;28;20038;-76
2022/09/09 11:15:45;;;;;;;0.30;0.30;;;16.40;99.90;;;;;;5002241;28;20034;-79
2022/09/09 11:18:19;;;;;;;0.10;0.10;;;16.40;99.90;;;;;;5001608;28;20018;-76
2022/09/09 11:20:48;;;;;;;0.20;0.20;;;16.20;99.90;;;;;;5001766;28;20208;-79
2022/09/09 11:23:47;;;;;;;0.00;0.00;;;16.10;99.90;;;;;;4984750;28;20083;-81
2022/09/09 11:26:28;;;;;;;0.00;0.00;;;16.20;99.90;;;;;;4994836;28;20076;-77
2022/09/09 11:29:21;;;;;;;0.10;0.10;;;16.10;99.90;;;;;;4999841;28;20037;-77
2022/09/09 11:32:20;;;;;;;0.10;0.10;;;16.00;99.90;;;;;;5000417;28;20045;-76
2022/09/09 11:35:02;;;;;;;10.75;0.45;;;16.10;99.90;;;;;;4988562;28;20061;-80
2022/09/09 11:37:49;;;;;;;2.08;0.32;;;16.20;99.90;;;;;;4969421;28;20140;-79
2022/09/09 11:40:23;;;;;;;1.35;0.90;;;16.40;99.90;;;;;;4984969;28;20092;-79
2022/09/09 11:43:00;;;;;;;0.05;0.05;;;16.40;99.90;;;;;;5000402;28;20042;-77
2022/09/09 11:45:29;;;;;;;0.55;0.55;;;16.40;99.90;;;;;;5002509;28;20445;-79
2022/09/09 11:48:00;;;;;;;0.00;0.00;;;16.40;99.90;;;;;;4966069;28;20030;-79
2022/09/09 11:50:25;;;;;;;0.10;0.10;;;16.50;99.90;;;;;;4999854;28;20034;-76
2022/09/09 11:53:04;;;;;;;15.43;2.17;;;16.60;99.90;;;;;;4967273;28;20121;-78
2022/09/09 11:55:36;;;;;;;0.17;0.17;;;16.50;99.90;;;;;;4983835;28;20041;-76
2022/09/09 11:58:11;;;;;;;0.10;0.10;;;16.60;99.90;;;;;;5000904;28;20075;-78
2022/09/09 12:00:46;;;;;;;0.10;0.10;;;16.60;99.90;;;;;;4982867;28;20037;-80
2022/09/09 12:03:31;;;;;;;0.08;0.08;;;16.60;99.90;;;;;;4966517;28;20358;-82
2022/09/09 12:05:58;;;;;;;0.10;0.10;;;16.70;99.90;;;;;;4983470;28;20112;-76
2022/09/09 12:08:29;;;;;;;0.10;0.10;;;17.00;99.90;;;;;;4998810;28;20052;-77
2022/09/09 12:10:59;;;;;;;0.03;0.03;;;17.00;99.90;;;;;;5001577;28;20116;-78
2022/09/09 12:13:27;;;;;;;0.17;0.17;;;16.80;99.90;;;;;;4998302;28;20022;-79
2022/09/09 12:15:57;;;;;;;2.30;0.32;;;16.70;99.90;;;;;;5003054;28;20072;-79
2022/09/09 12:18:33;;;;;;;0.82;0.38;;;16.60;99.90;;;;;;4998863;28;20038;-79
2022/09/09 12:21:02;;;;;;;2.42;2.22;;;16.50;99.90;;;;;;5000894;28;20044;-80
2022/09/09 12:23:59;;;;;;;0.50;0.50;;;16.40;99.90;;;;;;4981212;28;20041;-82
2022/09/09 12:26:53;;;;;;;0.10;0.10;;;16.50;99.90;;;;;;5000807;28;20632;-80
2022/09/09 12:29:19;;;;;;;0.10;0.10;;;16.70;99.90;;;;;;4998844;28;20038;-78
2022/09/09 12:32:03;;;;;;;0.10;0.10;;;16.70;99.90;;;;;;4982717;28;20536;-80
2022/09/09 12:34:40;;;;;;;0.05;0.05;;;16.80;99.90;;;;;;4982288;28;20569;-79
2022/09/09 12:37:23;;;;;;;0.08;0.08;;;16.90;99.90;;;;;;4983299;28;20022;-77
2022/09/09 12:39:56;;;;;;;0.10;0.10;;;17.00;99.90;;;;;;5000202;28;20072;-78
2022/09/09 12:42:23;;;;;;;0.10;0.10;;;17.00;99.90;;;;;;4982705;28;20030;-78
2022/09/09 12:45:00;;;;;;;0.10;0.10;;;16.90;99.90;;;;;;4997836;28;20042;-81
2022/09/09 12:47:47;;;;;;;0.10;0.10;;;16.90;99.90;;;;;;5000855;28;20084;-80
2022/09/09 12:50:27;;;;;;;7.47;1.85;;;17.00;99.90;;;;;;5000612;28;20107;-79
2022/09/09 12:52:58;;;;;;;19.50;8.45;;;17.00;99.90;;;;;;4983317;28;20036;-77
2022/09/09 12:55:30;;;;;;;0.10;0.10;;;17.00;99.90;;;;;;4999566;28;20057;-79
2022/09/09 12:57:56;;;;;;;;;;;17.00;99.90;;;;;;4998837;28;20069;-82
2022/09/09 13:00:25;;;;;;;0.10;0.10;;;16.90;99.90;;;;;;5000063;28;19913;-77
2022/09/09 13:02:56;;;;;;;0.10;0.10;;;17.10;99.90;;;;;;4977819;28;20030;-77
2022/09/09 13:05:28;;;;;;;0.10;0.10;;;17.20;99.90;;;;;;4982354;28;20046;-80
2022/09/09 13:08:10;;;;;;;5.45;2.08;;;17.20;99.90;;;;;;5001211;28;20527;-84
2022/09/09 13:10:55;;;;;;;0.03;0.03;;;17.20;99.90;;;;;;4999526;28;20064;-80
2022/09/09 13:13:29;;;;;;;0.20;0.20;;;17.10;99.90;;;;;;4999532;28;20030;-77
2022/09/09 13:15:58;;;;;;;0.20;0.20;;;17.10;99.90;;;;;;4999316;28;20489;-83
2022/09/09 13:18:39;;;;;;;0.10;0.10;;;17.00;99.90;;;;;;4981894;28;20029;-78
2022/09/09 13:21:06;;;;;;;0.10;0.10;;;17.00;99.90;;;;;;4999863;28;20088;-78